Feezor, North Carolina
Current Conditions -  °F | °C
As of 3:55 PM on Friday 19 Dec 2014 (Local Time) from KEXX Reporting Station
Clear Clear  
Wind Chill: 52°   Ceiling: Unl
Heat Index: 52°   Visibility: 10mi
Dew Point: 24°   Wind: 3mph
Humidity: 33%   Direction: 330°NNW
Pressure: 30.11"   Gusts: NA
Location:  35.7974°N, 80.2541°W
Report Text: KEXX 192055Z AUTO 33003KT 10SM CLR 11/M05 A3011 RMK AO2 T01101046
Loading
Personal Weather Stations






























Interactive Weather Map New forecast layout! Learn more

10-Day Weather Forecast

Advertisements
Track Severe Weather on mobile